createdAt,value
2023-02-13T00:01:06.698Z,0.07
2023-02-13T00:03:34.803Z,0.16
2023-02-13T00:06:02.786Z,0.12
2023-02-13T00:08:30.757Z,0.18
2023-02-13T00:10:59.107Z,0.26
2023-02-13T00:13:27.353Z,0.25
2023-02-13T00:16:00.143Z,0.25
2023-02-13T00:18:30.686Z,0.18
2023-02-13T00:21:00.116Z,0.22
2023-02-13T00:23:28.314Z,0.22
2023-02-13T00:25:56.280Z,0.11
2023-02-13T00:28:24.272Z,0.15
2023-02-13T00:30:52.521Z,0.11
2023-02-13T00:33:20.650Z,0.15
2023-02-13T00:35:49.953Z,0.23
2023-02-13T00:38:17.842Z,0.40
2023-02-13T00:40:45.740Z,0.31
2023-02-13T00:43:13.640Z,0.38
2023-02-13T00:45:41.519Z,0.35
2023-02-13T00:48:09.418Z,0.46
2023-02-13T00:50:37.301Z,0.51
2023-02-13T00:53:06.555Z,0.42
2023-02-13T00:55:35.762Z,0.58
2023-02-13T00:58:03.771Z,0.60
2023-02-13T01:00:31.715Z,0.59
2023-02-13T01:02:59.679Z,0.44
2023-02-13T01:05:31.032Z,0.31
2023-02-13T01:07:58.970Z,0.38
2023-02-13T01:10:28.299Z,0.31
2023-02-13T01:12:56.351Z,0.45
2023-02-13T01:15:24.804Z,0.51
2023-02-13T01:17:54.347Z,0.49
2023-02-13T01:20:22.337Z,0.40
2023-02-13T01:22:50.754Z,0.52
2023-02-13T01:25:18.760Z,0.42
2023-02-13T01:27:48.355Z,0.33
2023-02-13T01:30:18.273Z,0.18
2023-02-13T01:32:47.869Z,0.21
2023-02-13T01:35:16.964Z,0.32
2023-02-13T01:37:45.242Z,0.47
2023-02-13T01:40:15.164Z,0.40
2023-02-13T01:42:43.050Z,0.30
2023-02-13T01:45:24.832Z,0.48
2023-02-13T01:47:56.547Z,0.43
2023-02-13T01:50:29.974Z,0.33
2023-02-13T01:53:03.530Z,0.28
2023-02-13T01:55:33.837Z,0.25
2023-02-13T01:58:06.113Z,0.35
2023-02-13T02:00:36.803Z,0.37
2023-02-13T02:03:11.104Z,0.36
2023-02-13T02:05:40.337Z,0.30
2023-02-13T02:08:11.749Z,0.20
2023-02-13T02:10:40.557Z,0.28
2023-02-13T02:13:12.463Z,0.30
2023-02-13T02:15:43.646Z,0.30
2023-02-13T02:18:15.701Z,0.47
2023-02-13T02:21:25.028Z,0.58
2023-02-13T02:24:19.953Z,0.45
2023-02-13T02:27:19.179Z,0.54
2023-02-13T02:30:27.931Z,0.56
2023-02-13T02:33:08.536Z,0.58
2023-02-13T02:35:45.588Z,0.57
2023-02-13T02:38:33.432Z,0.60
2023-02-13T02:41:11.187Z,0.71
2023-02-13T02:43:52.763Z,0.54
2023-02-13T02:46:30.720Z,0.42
2023-02-13T02:49:24.516Z,0.36
2023-02-13T02:52:03.554Z,0.38
2023-02-13T02:54:55.991Z,0.22
2023-02-13T02:57:48.538Z,0.36
2023-02-13T03:00:35.698Z,0.55
2023-02-13T03:03:22.285Z,0.47
2023-02-13T03:06:11.785Z,0.36
2023-02-13T03:08:59.052Z,0.25
2023-02-13T03:11:44.896Z,0.00
2023-02-13T03:14:16.161Z,0.11
2023-02-13T03:17:01.754Z,0.18
2023-02-13T03:19:58.662Z,0.10
2023-02-13T03:22:41.945Z,-0.09
2023-02-13T03:25:19.223Z,-0.15
2023-02-13T03:28:09.453Z,-0.21
2023-02-13T03:30:54.476Z,-0.22
2023-02-13T03:33:36.686Z,-0.28
2023-02-13T03:36:33.403Z,-0.38
2023-02-13T03:39:08.802Z,-0.53
2023-02-13T03:41:41.292Z,-0.63
2023-02-13T03:44:15.203Z,-0.65
2023-02-13T03:46:46.356Z,-0.51
2023-02-13T03:49:39.973Z,-0.30
2023-02-13T03:52:14.671Z,-0.30
2023-02-13T03:55:04.496Z,-0.80
2023-02-13T03:57:52.871Z,-0.60
2023-02-13T04:00:22.489Z,-0.72
2023-02-13T04:02:58.734Z,-0.66
2023-02-13T04:05:31.024Z,-0.70
2023-02-13T04:07:59.127Z,-0.63
2023-02-13T04:10:32.995Z,-0.58
2023-02-13T04:13:10.834Z,-0.73
2023-02-13T04:15:43.656Z,-0.79
2023-02-13T04:18:15.721Z,-0.80
2023-02-13T04:20:44.177Z,-0.84
2023-02-13T04:23:13.654Z,-0.95
2023-02-13T04:25:47.424Z,-0.95
2023-02-13T04:28:15.475Z,-1.02
2023-02-13T04:30:43.606Z,-1.16
2023-02-13T04:33:11.614Z,-1.15
2023-02-13T04:35:39.534Z,-1.18
2023-02-13T04:38:07.479Z,-1.18
2023-02-13T04:40:35.568Z,-1.14
2023-02-13T04:43:04.858Z,-1.15
2023-02-13T04:45:32.781Z,-1.21
2023-02-13T04:48:01.552Z,-1.18
2023-02-13T04:50:29.454Z,-1.19
2023-02-13T04:52:59.031Z,-1.34
2023-02-13T04:55:28.655Z,-1.30
2023-02-13T04:57:57.828Z,-1.33
2023-02-13T05:00:29.161Z,-1.27
2023-02-13T05:03:02.116Z,-1.24
2023-02-13T05:05:30.041Z,-1.37
2023-02-13T05:07:57.932Z,-1.41
2023-02-13T05:10:25.910Z,-1.39
2023-02-13T05:12:53.834Z,-1.43
2023-02-13T05:15:22.721Z,-1.53
2023-02-13T05:17:52.513Z,-1.50
2023-02-13T05:20:20.884Z,-1.44
2023-02-13T05:23:10.445Z,-1.39
2023-02-13T05:25:40.450Z,-1.43
2023-02-13T05:28:29.528Z,-1.42
2023-02-13T05:30:58.273Z,-1.39
2023-02-13T05:33:28.315Z,-1.36
2023-02-13T05:35:56.206Z,-1.42
2023-02-13T05:38:24.199Z,-1.45
2023-02-13T05:40:52.103Z,-1.51
2023-02-13T05:43:21.373Z,-1.44
2023-02-13T05:45:49.415Z,-1.35
2023-02-13T05:48:17.614Z,-1.24
2023-02-13T05:50:48.974Z,-1.18
2023-02-13T05:53:16.895Z,-1.15
2023-02-13T05:55:44.780Z,-1.08
2023-02-13T05:58:12.807Z,-1.02
2023-02-13T06:00:40.763Z,-0.95
2023-02-13T06:03:08.851Z,-0.80
2023-02-13T06:05:36.834Z,-0.70
2023-02-13T06:08:06.426Z,-0.55
2023-02-13T06:10:34.357Z,-0.34
2023-02-13T06:13:02.253Z,-0.20
2023-02-13T06:15:30.821Z,-0.06
2023-02-13T06:17:58.873Z,0.09
2023-02-13T06:20:26.823Z,0.25
2023-02-13T06:22:55.320Z,0.41
2023-02-13T06:25:24.588Z,0.54
2023-02-13T06:27:52.602Z,0.64
2023-02-13T06:30:20.722Z,0.75
2023-02-13T06:32:49.421Z,0.89
2023-02-13T06:35:17.779Z,1.00
2023-02-13T06:37:47.291Z,1.14
2023-02-13T06:40:16.391Z,1.26
2023-02-13T06:42:46.670Z,1.36
2023-02-13T06:45:15.350Z,1.54
2023-02-13T06:47:44.116Z,1.66
2023-02-13T06:50:13.529Z,1.76
2023-02-13T06:52:46.370Z,1.89
2023-02-13T06:55:14.296Z,1.98
2023-02-13T06:57:42.932Z,2.10
2023-02-13T07:00:14.313Z,2.20
2023-02-13T07:02:42.660Z,2.34
2023-02-13T07:05:11.614Z,2.41
2023-02-13T07:07:41.553Z,2.38
2023-02-13T07:10:13.512Z,2.39
2023-02-13T07:12:41.815Z,2.62
2023-02-13T07:15:10.452Z,2.69
2023-02-13T07:17:39.760Z,2.87
2023-02-13T07:20:09.487Z,3.04
2023-02-13T07:22:37.461Z,3.19
2023-02-13T07:25:05.499Z,3.19
2023-02-13T07:27:33.423Z,3.28
2023-02-13T07:30:01.332Z,3.44
2023-02-13T07:32:29.225Z,3.66
2023-02-13T07:35:02.709Z,3.75
2023-02-13T07:37:31.595Z,3.91
2023-02-13T07:39:59.539Z,4.09
2023-02-13T07:42:27.455Z,4.15
2023-02-13T07:44:55.354Z,4.13
2023-02-13T07:47:23.229Z,4.31
2023-02-13T07:49:51.308Z,4.50
2023-02-13T07:52:20.560Z,4.67
2023-02-13T07:54:48.511Z,4.79
2023-02-13T07:57:16.935Z,4.93
2023-02-13T07:59:44.928Z,4.97
2023-02-13T08:02:14.581Z,5.06
2023-02-13T08:04:46.310Z,5.12
2023-02-13T08:07:14.475Z,5.12
2023-02-13T08:10:03.454Z,5.31
2023-02-13T08:12:32.649Z,5.53
2023-02-13T08:15:00.591Z,5.69
2023-02-13T08:17:28.497Z,5.86
2023-02-13T08:19:56.426Z,5.95
2023-02-13T08:22:24.380Z,6.02
2023-02-13T08:24:53.678Z,6.01
2023-02-13T08:27:21.893Z,6.19
2023-02-13T08:29:50.839Z,6.28
2023-02-13T08:32:18.888Z,6.27
2023-02-13T08:34:46.831Z,6.44
2023-02-13T08:37:14.788Z,6.62
2023-02-13T08:39:42.682Z,6.70
2023-02-13T08:42:15.209Z,6.84
2023-02-13T08:44:44.273Z,6.96
2023-02-13T08:47:12.431Z,7.09
2023-02-13T08:49:40.389Z,7.21
2023-02-13T08:52:08.307Z,7.31
2023-02-13T08:54:36.712Z,7.42
2023-02-13T08:57:04.949Z,7.47
2023-02-13T08:59:34.320Z,7.54
2023-02-13T09:02:02.382Z,7.65
2023-02-13T09:04:30.432Z,7.72
2023-02-13T09:06:58.339Z,7.11
2023-02-13T09:09:26.270Z,7.52
2023-02-13T09:11:57.813Z,7.46
2023-02-13T09:14:25.951Z,7.17
2023-02-13T09:16:55.305Z,7.42
2023-02-13T09:19:23.397Z,7.47
2023-02-13T09:21:51.294Z,7.62
2023-02-13T09:24:19.196Z,7.68
2023-02-13T09:26:47.109Z,7.87
2023-02-13T09:29:15.200Z,7.94
2023-02-13T09:31:43.239Z,7.73
2023-02-13T09:34:12.689Z,7.93
2023-02-13T09:36:40.642Z,8.13
2023-02-13T09:39:08.546Z,8.24
2023-02-13T09:41:40.937Z,8.25
2023-02-13T09:44:34.065Z,8.26
2023-02-13T09:47:06.759Z,8.10
2023-02-13T09:49:41.217Z,8.11
2023-02-13T09:52:11.271Z,8.25
2023-02-13T09:54:39.583Z,8.33
2023-02-13T09:57:17.978Z,8.22
2023-02-13T09:59:57.224Z,8.17
2023-02-13T10:02:39.600Z,8.18
2023-02-13T10:05:21.833Z,8.05
2023-02-13T10:07:59.924Z,8.42
2023-02-13T10:10:40.687Z,8.52
2023-02-13T10:13:24.693Z,8.64
2023-02-13T10:15:59.198Z,8.54
2023-02-13T10:18:36.242Z,8.65
2023-02-13T10:21:09.868Z,8.82
2023-02-13T10:23:43.839Z,8.63
2023-02-13T10:26:19.321Z,8.62
2023-02-13T10:29:13.172Z,8.77
2023-02-13T10:31:44.901Z,8.81
2023-02-13T10:34:16.684Z,8.93
2023-02-13T10:36:47.985Z,9.03
2023-02-13T10:39:25.111Z,9.06
2023-02-13T10:41:57.920Z,8.92
2023-02-13T10:44:44.336Z,9.05
2023-02-13T10:47:25.995Z,9.00
2023-02-13T10:50:08.295Z,9.10
2023-02-13T10:52:50.742Z,9.12
2023-02-13T10:55:33.647Z,9.19
2023-02-13T10:58:10.589Z,9.17
2023-02-13T11:00:43.568Z,9.27
2023-02-13T11:03:19.551Z,9.03
2023-02-13T11:05:47.637Z,9.05
2023-02-13T11:08:21.336Z,9.11
2023-02-13T11:10:49.425Z,9.17
2023-02-13T11:13:20.913Z,8.82
2023-02-13T11:16:01.743Z,9.12
2023-02-13T11:18:34.203Z,9.01
2023-02-13T11:21:07.913Z,8.94
2023-02-13T11:23:41.463Z,8.80
2023-02-13T11:26:12.421Z,8.77
2023-02-13T11:28:48.414Z,8.94
2023-02-13T11:31:24.497Z,8.84
2023-02-13T11:33:52.837Z,8.87
2023-02-13T11:36:27.083Z,8.92
2023-02-13T11:39:05.489Z,8.88
2023-02-13T11:41:40.718Z,8.88
2023-02-13T11:44:21.939Z,8.89
2023-02-13T11:46:52.817Z,8.40
2023-02-13T11:49:23.429Z,8.42
2023-02-13T11:51:54.108Z,8.77
2023-02-13T11:54:36.484Z,8.68
2023-02-13T11:57:18.367Z,8.66
2023-02-13T11:59:47.609Z,8.31
2023-02-13T12:02:19.727Z,8.48
2023-02-13T12:04:49.869Z,8.62
2023-02-13T12:07:22.988Z,8.52
2023-02-13T12:09:58.738Z,8.55
2023-02-13T12:12:34.260Z,8.15
2023-02-13T12:15:04.721Z,8.14
2023-02-13T12:17:33.621Z,8.37
2023-02-13T12:20:02.362Z,8.29
2023-02-13T12:22:40.021Z,8.46
2023-02-13T12:25:51.344Z,8.41
2023-02-13T12:28:25.612Z,8.47
2023-02-13T12:31:09.243Z,8.61
2023-02-13T12:33:54.153Z,8.40
2023-02-13T12:36:31.923Z,8.45
2023-02-13T12:39:15.802Z,8.63
2023-02-13T12:41:55.256Z,8.57
2023-02-13T12:44:38.902Z,8.53
2023-02-13T12:47:17.899Z,8.62
2023-02-13T12:50:18.120Z,8.43
2023-02-13T12:52:59.798Z,8.33
2023-02-13T12:55:44.587Z,8.37
2023-02-13T12:58:36.972Z,8.37
2023-02-13T13:01:15.977Z,8.37
2023-02-13T13:03:50.940Z,8.33
2023-02-13T13:06:32.580Z,8.01
2023-02-13T13:09:27.021Z,8.04
2023-02-13T13:12:21.984Z,8.03
2023-02-13T13:14:57.852Z,7.97
2023-02-13T13:17:43.935Z,7.88
2023-02-13T13:20:44.100Z,8.01
2023-02-13T13:23:17.477Z,8.06
2023-02-13T13:25:54.313Z,7.99
2023-02-13T13:28:25.037Z,7.81
2023-02-13T13:30:55.559Z,7.84
2023-02-13T13:33:25.366Z,8.04
2023-02-13T13:36:02.975Z,7.90
2023-02-13T13:38:44.070Z,7.82
2023-02-13T13:41:20.024Z,7.78
2023-02-13T13:44:08.856Z,7.60
2023-02-13T13:46:50.335Z,7.45
2023-02-13T13:49:37.171Z,7.59
2023-02-13T13:52:14.109Z,7.64
2023-02-13T13:54:42.343Z,7.54
2023-02-13T13:57:13.695Z,7.54
2023-02-13T14:00:21.220Z,7.42
2023-02-13T14:02:52.127Z,7.46
2023-02-13T14:05:29.580Z,7.35
2023-02-13T14:07:59.974Z,7.38
2023-02-13T14:11:07.260Z,7.32
2023-02-13T14:13:37.819Z,7.11
2023-02-13T14:16:08.008Z,7.14
2023-02-13T14:18:38.764Z,7.07
2023-02-13T14:21:07.690Z,7.05
2023-02-13T14:23:53.311Z,7.07
2023-02-13T14:26:32.690Z,7.00
2023-02-13T14:29:17.808Z,7.05
2023-02-13T14:32:17.182Z,6.84
2023-02-13T14:34:54.210Z,6.76
2023-02-13T14:37:30.298Z,6.83
2023-02-13T14:40:30.117Z,6.71
2023-02-13T14:43:01.515Z,6.51
2023-02-13T14:45:33.474Z,6.63
2023-02-13T14:48:09.052Z,6.65
2023-02-13T14:50:47.180Z,6.65
2023-02-13T14:53:23.703Z,6.51
2023-02-13T14:55:57.806Z,6.58
2023-02-13T14:58:29.093Z,6.39
2023-02-13T15:01:01.448Z,6.41
2023-02-13T15:03:32.666Z,6.23
2023-02-13T15:06:05.974Z,6.17
2023-02-13T15:08:38.118Z,6.18
2023-02-13T15:11:26.267Z,6.10
2023-02-13T15:13:54.209Z,6.06
2023-02-13T15:16:22.225Z,6.04
2023-02-13T15:18:52.602Z,5.96
2023-02-13T15:21:24.402Z,5.83
2023-02-13T15:23:55.608Z,5.64
2023-02-13T15:26:26.444Z,5.59
2023-02-13T15:29:02.234Z,5.51
2023-02-13T15:31:33.424Z,5.67
2023-02-13T15:34:01.638Z,5.28
2023-02-13T15:36:38.049Z,5.34
2023-02-13T15:39:09.780Z,5.30
2023-02-13T15:41:41.508Z,5.10
2023-02-13T15:44:15.750Z,4.83
2023-02-13T15:46:45.253Z,4.92
2023-02-13T15:49:17.756Z,4.91
2023-02-13T15:51:47.953Z,4.04
2023-02-13T15:54:27.964Z,3.76
2023-02-13T15:56:58.935Z,3.72
2023-02-13T15:59:32.802Z,3.61
2023-02-13T16:02:01.935Z,3.25
2023-02-13T16:04:30.599Z,3.03
2023-02-13T16:07:00.349Z,3.04
2023-02-13T16:09:32.791Z,3.43
2023-02-13T16:12:08.954Z,3.59
2023-02-13T16:14:45.981Z,3.70
2023-02-13T16:17:19.662Z,3.74
2023-02-13T16:19:55.795Z,3.77
2023-02-13T16:22:34.325Z,3.66
2023-02-13T16:25:19.512Z,3.49
2023-02-13T16:27:50.004Z,3.39
2023-02-13T16:30:26.563Z,3.13
2023-02-13T16:33:11.351Z,2.47
2023-02-13T16:35:40.857Z,2.34
2023-02-13T16:38:28.268Z,2.37
2023-02-13T16:40:57.961Z,1.99
2023-02-13T16:43:44.917Z,1.53
2023-02-13T16:46:26.446Z,1.95
2023-02-13T16:49:07.829Z,1.68
2023-02-13T16:51:39.762Z,1.69
2023-02-13T16:54:22.027Z,1.83
2023-02-13T16:56:52.935Z,1.98
2023-02-13T16:59:34.769Z,2.18
2023-02-13T17:02:21.824Z,1.91
2023-02-13T17:04:52.311Z,2.06
2023-02-13T17:07:23.525Z,2.07
2023-02-13T17:10:01.558Z,1.84
2023-02-13T17:12:31.671Z,1.33
2023-02-13T17:15:00.778Z,0.96
2023-02-13T17:17:30.545Z,1.20
2023-02-13T17:19:59.124Z,1.08
2023-02-13T17:22:35.732Z,1.02
2023-02-13T17:25:07.629Z,1.02
2023-02-13T17:27:35.762Z,0.58
2023-02-13T17:30:03.810Z,0.41
2023-02-13T17:32:32.121Z,0.60
2023-02-13T17:35:00.106Z,0.79
2023-02-13T17:37:30.126Z,1.04
2023-02-13T17:39:58.095Z,1.14
2023-02-13T17:42:29.477Z,1.43
2023-02-13T17:44:59.176Z,1.56
2023-02-13T17:47:27.731Z,1.57
2023-02-13T17:50:08.319Z,1.34
2023-02-13T17:52:37.982Z,1.10
2023-02-13T17:55:06.794Z,1.22
2023-02-13T17:57:36.124Z,1.48
2023-02-13T18:00:05.124Z,1.27
2023-02-13T18:02:33.696Z,1.70
2023-02-13T18:05:01.616Z,1.88
2023-02-13T18:07:29.598Z,2.06
2023-02-13T18:09:57.486Z,2.03
2023-02-13T18:12:26.038Z,1.96
2023-02-13T18:14:55.451Z,1.77
2023-02-13T18:17:23.515Z,1.71
2023-02-13T18:19:51.615Z,1.89
2023-02-13T18:22:19.558Z,1.93
2023-02-13T18:24:47.643Z,1.91
2023-02-13T18:27:15.539Z,1.82
2023-02-13T18:29:43.503Z,1.96
2023-02-13T18:32:13.297Z,1.98
2023-02-13T18:34:41.321Z,2.11
2023-02-13T18:37:09.633Z,2.16
2023-02-13T18:39:37.564Z,1.61
2023-02-13T18:42:05.732Z,1.93
2023-02-13T18:44:33.789Z,1.45
2023-02-13T18:47:02.192Z,1.33
2023-02-13T18:49:31.464Z,0.87
2023-02-13T18:52:00.800Z,1.04
2023-02-13T18:54:28.805Z,1.07
2023-02-13T18:56:56.856Z,1.06
2023-02-13T18:59:24.859Z,1.25
2023-02-13T19:01:52.820Z,1.39
2023-02-13T19:04:20.740Z,1.54
2023-02-13T19:06:50.356Z,1.67
2023-02-13T19:09:18.363Z,1.80
2023-02-13T19:11:48.525Z,1.95
2023-02-13T19:14:17.058Z,1.47
2023-02-13T19:16:45.068Z,1.38
2023-02-13T19:19:13.088Z,1.29
2023-02-13T19:21:41.412Z,0.81
2023-02-13T19:24:15.422Z,0.79
2023-02-13T19:26:44.755Z,0.55
2023-02-13T19:29:12.689Z,1.08
2023-02-13T19:31:40.724Z,1.29
2023-02-13T19:34:08.726Z,1.36
2023-02-13T19:36:36.658Z,1.35
2023-02-13T19:39:09.117Z,1.26
2023-02-13T19:41:40.687Z,1.33
2023-02-13T19:44:08.857Z,1.15
2023-02-13T19:46:37.996Z,1.14
2023-02-13T19:49:06.614Z,1.09
2023-02-13T19:51:35.846Z,1.16
2023-02-13T19:54:06.299Z,1.17
2023-02-13T19:56:35.563Z,1.24
2023-02-13T19:59:05.320Z,1.22
2023-02-13T20:01:33.675Z,1.31
2023-02-13T20:04:01.639Z,1.38
2023-02-13T20:06:35.024Z,1.33
2023-02-13T20:09:06.669Z,1.53
2023-02-13T20:11:34.688Z,1.53
2023-02-13T20:14:05.321Z,1.53
2023-02-13T20:16:36.698Z,1.48
2023-02-13T20:19:06.992Z,1.53
2023-02-13T20:21:35.398Z,1.02
2023-02-13T20:24:04.035Z,0.67
2023-02-13T20:26:32.326Z,0.48
2023-02-13T20:29:00.574Z,0.32
2023-02-13T20:31:31.172Z,0.44
2023-02-13T20:33:59.540Z,0.18
2023-02-13T20:36:28.781Z,0.38
2023-02-13T20:38:59.643Z,0.44
2023-02-13T20:41:29.261Z,0.36
2023-02-13T20:43:59.608Z,0.14
2023-02-13T20:46:30.089Z,0.03
2023-02-13T20:48:58.009Z,-0.15
2023-02-13T20:51:26.452Z,-0.38
2023-02-13T20:53:55.518Z,-0.60
2023-02-13T20:56:25.170Z,-0.55
2023-02-13T20:58:56.065Z,-0.56
2023-02-13T21:01:26.249Z,-0.45
2023-02-13T21:03:56.886Z,-0.70
2023-02-13T21:06:26.344Z,-0.72
2023-02-13T21:08:54.556Z,-0.75
2023-02-13T21:11:23.321Z,-0.59
2023-02-13T21:13:51.781Z,-0.53
2023-02-13T21:16:21.397Z,-0.41
2023-02-13T21:18:49.857Z,-0.28
2023-02-13T21:21:19.934Z,-0.23
2023-02-13T21:23:47.978Z,-0.20
2023-02-13T21:26:17.684Z,-0.19
2023-02-13T21:28:47.207Z,0.02
2023-02-13T21:31:17.443Z,-0.05
2023-02-13T21:33:45.678Z,-0.27
2023-02-13T21:36:14.585Z,-0.14
2023-02-13T21:38:43.957Z,0.14
2023-02-13T21:41:14.542Z,0.20
2023-02-13T21:43:46.743Z,0.40
2023-02-13T21:46:17.245Z,0.40
2023-02-13T21:48:45.524Z,0.26
2023-02-13T21:51:15.374Z,0.17
2023-02-13T21:53:45.662Z,-0.02
2023-02-13T21:56:16.179Z,0.02
2023-02-13T21:58:45.639Z,-0.17
2023-02-13T22:01:25.427Z,-0.22
2023-02-13T22:03:54.834Z,-0.28
2023-02-13T22:06:23.186Z,-0.11
2023-02-13T22:08:57.461Z,0.05
2023-02-13T22:11:26.106Z,0.31
2023-02-13T22:13:56.129Z,0.44
2023-02-13T22:16:24.124Z,0.62
2023-02-13T22:18:52.199Z,0.62
2023-02-13T22:21:21.854Z,0.67
2023-02-13T22:23:51.110Z,0.69
2023-02-13T22:26:22.533Z,0.68
2023-02-13T22:28:51.367Z,0.81
2023-02-13T22:31:20.588Z,0.89
2023-02-13T22:33:55.315Z,0.99
2023-02-13T22:36:30.979Z,1.04
2023-02-13T22:38:58.905Z,0.88
2023-02-13T22:41:29.039Z,0.90
2023-02-13T22:43:57.215Z,0.99
2023-02-13T22:46:27.330Z,0.85
2023-02-13T22:48:56.117Z,0.61
2023-02-13T22:51:25.964Z,0.63
2023-02-13T22:53:54.745Z,0.78
2023-02-13T22:56:23.052Z,0.88
2023-02-13T22:58:52.590Z,0.77
2023-02-13T23:01:22.396Z,0.67
2023-02-13T23:03:50.990Z,0.69
2023-02-13T23:06:19.834Z,0.80
2023-02-13T23:08:49.116Z,0.71
2023-02-13T23:11:36.028Z,0.56
2023-02-13T23:14:05.357Z,0.78
2023-02-13T23:16:53.782Z,0.04
2023-02-13T23:19:20.922Z,0.07
2023-02-13T23:21:48.928Z,0.10
2023-02-13T23:24:16.881Z,-0.14
2023-02-13T23:26:44.871Z,-0.24
2023-02-13T23:29:14.161Z,-0.19
2023-02-13T23:31:42.213Z,-0.60
2023-02-13T23:34:10.166Z,-0.51
2023-02-13T23:36:38.176Z,-0.46
2023-02-13T23:39:06.123Z,-0.69
2023-02-13T23:41:34.063Z,-0.87
2023-02-13T23:44:01.959Z,-0.69
2023-02-13T23:46:31.364Z,-0.46
2023-02-13T23:48:59.272Z,-0.47
2023-02-13T23:51:27.283Z,-0.48
2023-02-13T23:53:57.376Z,-0.24
2023-02-13T23:56:26.000Z,0.02
2023-02-13T23:58:54.059Z,-0.32
